Pms Mayo — 6ACR — position and weather

sailwx.info

Track history (hours):
 
Tides and Currents Weather Stations Pressure Air Temp Water Temp Dewpoint Dewpoint Depression Visibility Wind Speed Wind Dir Waves Ship Positions

Pms Mayo

Last reported at 2018-Jul-24 13:03 UTC. Time now 2018-Aug-20 16:17 UTC.
Position N 31°21' E 032°20'.
Warning: this ship's position is 27 days out of date.

Length 91 m; draft 6.2 m.

Type: Other ship. MMSI: 622122450.

Date/timePositionNaut miles runAvg speedWind from/ knotsBaromVisibWave heightAir tempDewpointWater temp
2018-Jul-24 13:03N 31°21' E 032°20'0 0.0
2018-Jul-24 12:57N 31°21' E 032°20'0 0.0
2018-Jul-24 10:51N 31°21' E 032°20'0 0.0
2018-Jul-24 10:30N 31°21' E 032°20'4 0.1
2018-Jul-22 13:24N 31°25' E 032°20'3 8.0
2018-Jul-22 13:01N 31°26' E 032°17'7 8.9
2018-Jul-22 12:16N 31°29' E 032°10'  
2018-Jul-18 16:42N 31°31' E 032°06'0 0.0
2018-Jul-18 13:19N 31°31' E 032°06'0 0.0
2018-Jul-18 13:01N 31°31' E 032°06'0 0.0
2018-Jul-18 12:10N 31°31' E 032°06'0 0.0
2018-Jul-18 12:00N 31°31' E 032°06'0 0.0
2018-Jul-18 11:26N 31°31' E 032°06'0 0.0
2018-Jul-18 10:00N 31°31' E 032°06'0 0.0
2018-Jul-18 09:30N 31°31' E 032°06'0 0.0
2018-Jul-18 02:30N 31°31' E 032°06'0 0.0
2018-Jul-17 23:53N 31°31' E 032°06'0 0.0
2018-Jul-17 23:24N 31°31' E 032°06'0 0.0
2018-Jul-17 22:52N 31°31' E 032°06'0 0.0
2018-Jul-17 20:11N 31°31' E 032°06'0 0.0
2018-Jul-17 17:53N 31°31' E 032°06'0 0.0
2018-Jul-17 16:21N 31°31' E 032°06'0 0.0
2018-Jul-17 12:15N 31°31' E 032°06'1 0.0
2018-Jul-16 12:36N 31°30' E 032°06'0 0.0
2018-Jul-16 12:28N 31°30' E 032°06'0 0.0
2018-Jul-16 11:54N 31°30' E 032°06'0 0.0
2018-Jul-16 11:30N 31°30' E 032°06'0 0.0
2018-Jul-16 11:00N 31°30' E 032°06'0 0.0
2018-Jul-15 23:55N 31°30' E 032°06'0 0.0
2018-Jul-15 23:30N 31°30' E 032°06'0 0.0
2018-Jul-15 22:21N 31°30' E 032°06'0 0.0
2018-Jul-15 21:58N 31°30' E 032°06'0 0.0
2018-Jul-15 20:42N 31°30' E 032°06'0 0.0
2018-Jul-15 18:21N 31°30' E 032°06'0 0.0
2018-Jul-15 17:05N 31°30' E 032°06'0 0.0
2018-Jul-15 17:00N 31°30' E 032°06'0 0.1
2018-Jul-15 15:19N 31°30' E 032°06'0 0.0
2018-Jul-15 15:01N 31°30' E 032°06'  
Track history (hours):
 
Tides and Currents Weather Stations Pressure Air Temp Water Temp Dewpoint Dewpoint Depression Visibility Wind Speed Wind Dir Waves Ship Positions

Pms Mayo

Last reported at 2018-Jul-24 13:03 UTC. Time now 2018-Aug-20 16:17 UTC.
Position N 31°21' E 032°20'.
Warning: this ship's position is 27 days out of date.

Length 91 m; draft 6.2 m.

Type: Other ship. MMSI: 622122450.

Date/timePositionNaut miles runAvg speedWind from/ knotsBaromVisibWave heightAir tempDewpointWater temp
2018-Jul-24 13:03N 31°21' E 032°20'0 0.0
2018-Jul-24 12:57N 31°21' E 032°20'0 0.0
2018-Jul-24 10:51N 31°21' E 032°20'0 0.0
2018-Jul-24 10:30N 31°21' E 032°20'4 0.1
2018-Jul-22 13:24N 31°25' E 032°20'3 8.0
2018-Jul-22 13:01N 31°26' E 032°17'7 8.9
2018-Jul-22 12:16N 31°29' E 032°10'  
2018-Jul-18 16:42N 31°31' E 032°06'0 0.0
2018-Jul-18 13:19N 31°31' E 032°06'0 0.0
2018-Jul-18 13:01N 31°31' E 032°06'0 0.0
2018-Jul-18 12:10N 31°31' E 032°06'0 0.0
2018-Jul-18 12:00N 31°31' E 032°06'0 0.0
2018-Jul-18 11:26N 31°31' E 032°06'0 0.0
2018-Jul-18 10:00N 31°31' E 032°06'0 0.0
2018-Jul-18 09:30N 31°31' E 032°06'0 0.0
2018-Jul-18 02:30N 31°31' E 032°06'0 0.0
2018-Jul-17 23:53N 31°31' E 032°06'0 0.0
2018-Jul-17 23:24N 31°31' E 032°06'0 0.0
2018-Jul-17 22:52N 31°31' E 032°06'0 0.0
2018-Jul-17 20:11N 31°31' E 032°06'0 0.0
2018-Jul-17 17:53N 31°31' E 032°06'0 0.0
2018-Jul-17 16:21N 31°31' E 032°06'0 0.0
2018-Jul-17 12:15N 31°31' E 032°06'1 0.0
2018-Jul-16 12:36N 31°30' E 032°06'0 0.0
2018-Jul-16 12:28N 31°30' E 032°06'0 0.0
2018-Jul-16 11:54N 31°30' E 032°06'0 0.0
2018-Jul-16 11:30N 31°30' E 032°06'0 0.0
2018-Jul-16 11:00N 31°30' E 032°06'0 0.0
2018-Jul-15 23:55N 31°30' E 032°06'0 0.0
2018-Jul-15 23:30N 31°30' E 032°06'0 0.0
2018-Jul-15 22:21N 31°30' E 032°06'0 0.0
2018-Jul-15 21:58N 31°30' E 032°06'0 0.0
2018-Jul-15 20:42N 31°30' E 032°06'0 0.0
2018-Jul-15 18:21N 31°30' E 032°06'0 0.0
2018-Jul-15 17:05N 31°30' E 032°06'0 0.0
2018-Jul-15 17:00N 31°30' E 032°06'0 0.1
2018-Jul-15 15:19N 31°30' E 032°06'0 0.0
2018-Jul-15 15:01N 31°30' E 032°06'  

Dump ship's entire track history